Data for 10/16/2008

Time Sea-Level Adjusted Pressure Absolute Pressure Temperature Relative Humidity Dew Point   
(mb) (inHg) (mb) (inHg) (C) (F) (%) (C) (F)
00:05 1022 30.18 851 25.13 2.8 37.1 79 -0.5 31.2
00:10 1022 30.18 851 25.13 2.7 36.8 80 -0.5 31.1
00:15 1022 30.18 851 25.13 2.6 36.6 80 -0.6 30.9
00:20 1022 30.18 851 25.13 2.4 36.3 80 -0.8 30.6
00:25 1022 30.18 851 25.13 2.3 36.1 79 -0.9 30.3
00:30 1022 30.18 851 25.13 2.6 36.6 76 -1.2 29.9
00:35 1022 30.18 851 25.13 2.7 36.8 77 -1 30.2
00:40 1022 30.18 851 25.13 2.9 37.1 75 -1.1 30.1
00:45 1022 30.18 851 25.13 3.3 38 74 -0.9 30.4
00:50 1022 30.18 851 25.13 3.2 37.8 75 -0.8 30.5
00:55 1022 30.18 851 25.13 3 37.3 75 -1 30.3
01:00 1022 30.18 851 25.13 2.8 37.1 76 -1 30.2
01:05 1022 30.18 851 25.13 2.5 36.5 78 -1 30.2
01:10 1022 30.18 851 25.13 2.3 36.2 78 -1.1 30
01:15 1022 30.18 851 25.13 2.4 36.3 77 -1.2 29.9
01:20 1022 30.18 851 25.13 2.4 36.3 77 -1.2 29.9
01:25 1022 30.18 851 25.13 2.4 36.3 77 -1.1 30
01:30 1022 30.18 851 25.13 2.4 36.4 77 -1.3 29.7
01:35 1022 30.18 851 25.13 2.5 36.5 76 -1.2 29.8
01:40 1022 30.18 851 25.13 2.4 36.3 77 -1.3 29.7
01:45 1022 30.18 851 25.13 2.3 36.2 77 -1.3 29.7
01:50 1022 30.18 851 25.13 2.2 36 77 -1.3 29.6
01:55 1022 30.18 851 25.13 2 35.6 79 -1.3 29.6
02:00 1022 30.18 851 25.13 1.7 35 80 -1.5 29.3
02:05 1022 30.18 851 25.13 1.6 34.8 80 -1.5 29.3
02:10 1022 30.18 851 25.13 1.8 35.2 79 -1.5 29.4
02:15 1022 30.18 851 25.13 1.6 34.9 82 -1.2 29.8
02:20 1022 30.18 851 25.13 1.5 34.6 82 -1.3 29.7
02:25 1022 30.18 851 25.13 1.5 34.7 82 -1.2 29.8
02:30 1022 30.18 851 25.13 1.6 34.8 82 -1.2 29.9
02:35 1022 30.18 851 25.13 1.6 34.8 82 -1.2 29.9
02:40 1022 30.18 851 25.13 2 35.7 80 -1 30.1
02:45 1022 30.18 851 25.13 2.1 35.7 79 -1.2 29.8
02:50 1022 30.18 851 25.13 2.1 35.8 79 -1.2 29.8
02:55 1022 30.18 851 25.13 2.3 36.1 77 -1.4 29.5
03:00 1022 30.18 851 25.13 2.3 36.2 77 -1.3 29.7
03:05 1022 30.18 851 25.13 2.2 36 78 -1.2 29.8
03:10 1022 30.18 851 25.13 1.9 35.5 78 -1.5 29.2
03:15 1022 30.18 851 25.13 2.1 35.8 76 -1.7 28.9
03:20 1022 30.18 851 25.13 2.5 36.5 76 -1.4 29.5
03:25 1022 30.18 851 25.13 2.9 37.2 74 -1.3 29.6
03:30 1022 30.18 851 25.13 2.5 36.5 77 -1.1 29.9
03:35 1022 30.18 851 25.13 1.8 35.3 80 -1.2 29.8
03:40 1022 30.18 851 25.13 1.2 34.2 83 -1.4 29.5
03:45 1022 30.18 851 25.13 1.2 34.1 81 -1.6 29
03:50 1022 30.18 851 25.13 1.7 35 80 -1.3 29.6
03:55 1022 30.18 851 25.13 1.8 35.2 81 -1.2 29.9
04:00 1022 30.18 851 25.13 1.9 35.4 79 -1.3 29.6
04:05 1022 30.18 851 25.13 2.3 36.1 78 -1.2 29.8
04:10 1022 30.18 851 25.13 2.4 36.4 77 -1.1 30
04:15 1022 30.18 851 25.13 2.5 36.6 77 -1.1 30
04:20 1022 30.18 851 25.13 2.6 36.7 77 -1 30.2
04:25 1022 30.18 851 25.13 2.6 36.6 77 -1 30.2
04:30 1022 30.18 851 25.13 2.6 36.6 78 -1 30.3
04:35 1022 30.18 851 25.13 2.5 36.5 79 -0.8 30.6
04:40 1022 30.18 851 25.13 2.3 36.2 79 -0.9 30.4
04:45 1022 30.18 851 25.13 2.4 36.4 79 -0.8 30.5
04:50 1022 30.18 851 25.13 2.4 36.4 79 -0.8 30.5
04:55 1022 30.18 851 25.13 2.2 36 80 -0.8 30.5
05:00 1022 30.18 852 25.16 2.1 35.7 81 -0.9 30.4
05:05 1022 30.18 852 25.16 2.1 35.8 81 -0.9 30.4
05:10 1022 30.18 852 25.16 2.1 35.8 81 -0.9 30.5
05:15 1022 30.18 852 25.16 2.1 35.7 81 -0.8 30.5
05:20 1022 30.18 852 25.16 2.1 35.7 81 -0.9 30.4
05:25 1022 30.18 852 25.16 2.1 35.7 81 -0.8 30.5
05:30 1022 30.18 852 25.16 2.1 35.8 80 -0.9 30.4
05:35 1022 30.18 852 25.16 2.3 36.2 80 -0.8 30.5
05:40 1022 30.18 852 25.16 2.3 36.2 80 -0.8 30.6
05:45 1022 30.18 852 25.16 2.4 36.4 79 -0.8 30.6
05:50 1022 30.18 852 25.16 2.5 36.6 79 -0.8 30.6
05:55 1022 30.18 852 25.16 2.6 36.6 79 -0.7 30.8
06:00 1023 30.21 852 25.16 2.5 36.5 80 -0.7 30.8
06:05 1023 30.21 852 25.16 2.4 36.3 81 -0.6 30.9
06:10 1023 30.21 852 25.16 2.2 35.9 82 -0.6 30.9
06:15 1023 30.21 852 25.16 2 35.7 82 -0.7 30.7
06:20 1023 30.21 852 25.16 2 35.7 82 -0.7 30.8
06:25 1023 30.21 852 25.16 2 35.5 83 -0.7 30.7
06:30 1023 30.21 852 25.16 2.1 35.8 81 -0.7 30.7
06:35 1022 30.18 852 25.16 2.2 36 81 -0.7 30.7
06:40 1022 30.18 852 25.16 2.4 36.3 79 -0.9 30.4
06:45 1022 30.18 852 25.16 2.6 36.7 78 -0.8 30.5
06:50 1022 30.18 852 25.16 2.7 36.8 78 -0.8 30.5
06:55 1022 30.18 852 25.16 2.8 37 77 -0.8 30.5
07:00 1023 30.21 852 25.16 2.6 36.6 79 -0.8 30.6
07:05 1023 30.21 852 25.16 2.6 36.6 78 -0.8 30.6
07:10 1023 30.21 852 25.16 2.5 36.6 78 -0.9 30.4
07:15 1023 30.21 852 25.16 2.6 36.6 79 -0.7 30.7
07:20 1023 30.21 852 25.16 2.5 36.5 78 -0.9 30.3
07:25 1023 30.21 852 25.16 2.6 36.7 79 -0.7 30.7
07:30 1023 30.21 852 25.16 2.2 36 81 -0.8 30.6
07:35 1023 30.21 852 25.16 2.1 35.8 80 -0.9 30.4
07:40 1023 30.21 852 25.16 2.3 36.1 80 -0.9 30.3
07:45 1023 30.21 852 25.16 2.5 36.5 78 -0.9 30.3
07:50 1023 30.21 852 25.16 2.6 36.7 78 -0.8 30.5
07:55 1023 30.21 852 25.16 2.6 36.8 77 -1 30.1
08:00 1023 30.21 852 25.16 2.9 37.2 77 -0.8 30.5
08:05 1023 30.21 852 25.16 3 37.5 76 -0.8 30.6
08:10 1023 30.21 852 25.16 3 37.4 77 -0.7 30.7
08:15 1023 30.21 852 25.16 3 37.3 77 -0.7 30.7
08:20 1023 30.21 852 25.16 2.8 37.1 78 -0.7 30.8
08:25 1023 30.21 852 25.16 2.7 36.9 78 -0.7 30.7
08:30 1023 30.21 853 25.19 2.7 36.9 78 -0.7 30.7
08:35 1023 30.21 853 25.19 2.6 36.7 80 -0.6 31
08:40 1023 30.21 853 25.19 2.7 36.8 79 -0.6 30.9
08:45 1024 30.24 853 25.19 2.8 37 79 -0.5 31.1
08:50 1024 30.24 853 25.19 3.1 37.6 78 -0.4 31.2
08:55 1024 30.24 853 25.19 3.6 38.5 76 -0.2 31.6
09:00 1024 30.24 853 25.19 3.7 38.7 77 0.1 32.1
09:05 1024 30.24 853 25.19 3.9 39 77 0.3 32.6
09:10 1024 30.24 853 25.19 4.1 39.4 78 0.6 33
09:15 1024 30.24 853 25.19 4.1 39.3 79 0.8 33.5
09:20 1024 30.24 853 25.19 4.1 39.5 79 0.9 33.6
09:25 1024 30.24 853 25.19 4.3 39.7 79 0.9 33.7
09:30 1024 30.24 853 25.19 4.3 39.8 79 1.1 33.9
09:35 1024 30.24 853 25.19 4.5 40 80 1.3 34.4
09:40 1024 30.24 853 25.19 4.5 40.2 81 1.6 34.9
09:45 1024 30.24 853 25.19 4.5 40.1 82 1.8 35.2
09:50 1024 30.24 853 25.19 4.3 39.7 82 1.5 34.7
09:55 1024 30.24 853 25.19 4 39.2 85 1.6 35
10:00 1024 30.24 853 25.19 3.7 38.6 87 1.7 35.1
10:05 1024 30.24 853 25.19 3.3 38 88 1.5 34.7
10:10 1024 30.24 853 25.19 3.1 37.6 88 1.2 34.2
10:15 1024 30.24 853 25.19 3 37.5 87 1.1 34
10:20 1024 30.24 853 25.19 3.2 37.7 86 1.1 33.9
10:25 1024 30.24 853 25.19 3.5 38.2 86 1.3 34.4
10:30 1024 30.24 853 25.19 4.1 39.4 84 1.6 35
10:35 1024 30.24 853 25.19 4.9 40.9 80 1.7 35.1
10:40 1024 30.24 853 25.19 5.8 42.4 74 1.6 34.9
10:45 1024 30.24 853 25.19 5.8 42.4 73 1.3 34.3
10:50 1024 30.24 853 25.19 5.8 42.5 72 1.2 34.1
10:55 1024 30.24 853 25.19 7.1 44.8 70 2.1 35.8
11:00 1024 30.24 853 25.19 7.3 45.1 71 2.4 36.3
11:05 1024 30.24 853 25.19 6.9 44.4 71 2 35.6
11:10 1024 30.24 853 25.19 6.6 44 69 1.5 34.7
11:15 1024 30.24 853 25.19 6.7 44.1 70 1.6 34.9
11:20 1024 30.24 853 25.19 6.1 43 73 1.6 34.9
11:25 1024 30.24 853 25.19 6.4 43.6 69 1.2 34.1
11:30 1024 30.24 853 25.19 6.7 44.1 65 0.7 33.3
11:35 1024 30.24 853 25.19 7.1 44.8 70 2.1 35.7
11:40 1024 30.24 853 25.19 7.2 45 64 0.9 33.7
11:45 1024 30.24 853 25.19 7.2 44.9 66 1.3 34.3
11:50 1024 30.24 853 25.19 7.2 45 64 1 33.7
11:55 1024 30.24 853 25.19 7.6 45.6 64 1.3 34.3
12:00 1024 30.24 853 25.19 8 46.3 62 1.1 34
12:05 1024 30.24 853 25.19 7.8 46.1 62 1.1 33.9
12:10 1024 30.24 853 25.19 7.8 46.1 64 1.5 34.6
12:15 1024 30.24 853 25.19 7.8 46 62 1.1 33.9
12:20 1024 30.24 853 25.19 7.5 45.5 62 0.8 33.4
12:25 1024 30.24 853 25.19 8 46.4 60 0.8 33.4
12:30 1024 30.24 853 25.19 7.5 45.5 64 1.1 34
12:35 1024 30.24 853 25.19 7.3 45.1 62 0.4 32.8
12:40 1024 30.24 853 25.19 7.7 45.9 61 0.7 33.3
12:45 1024 30.24 853 25.19 8.4 47.2 57 0.4 32.7
12:50 1023 30.21 853 25.19 8.8 47.9 56 0.5 32.9
12:55 1023 30.21 853 25.19 8.5 47.3 57 0.4 32.8
13:00 1023 30.21 853 25.19 8.6 47.5 55 0.2 32.3
13:05 1023 30.21 853 25.19 9 48.2 54 0.3 32.5
13:10 1023 30.21 853 25.19 9.3 48.7 53 0.3 32.5
13:15 1023 30.21 853 25.19 9.5 49 53 0.3 32.5
13:20 1023 30.21 853 25.19 9.3 48.7 53 0.2 32.4
13:25 1023 30.21 853 25.19 9.4 49 52 -0 31.9
13:30 1023 30.21 852 25.16 9.5 49.1 52 0.3 32.5
13:35 1023 30.21 852 25.16 9.5 49.1 50 -0.4 31.3
13:40 1023 30.21 852 25.16 9.6 49.4 51 -0.1 31.9
13:45 1023 30.21 852 25.16 9.4 49 50 -0.3 31.4
13:50 1023 30.21 852 25.16 9.2 48.5 51 -0.4 31.3
13:55 1023 30.21 852 25.16 9.3 48.8 49 -0.7 30.7
14:00 1023 30.21 852 25.16 9.7 49.5 48 -0.8 30.6
14:05 1023 30.21 852 25.16 9.5 49 49 -0.7 30.8
14:10 1023 30.21 852 25.16 9.7 49.4 48 -0.8 30.6
14:15 1023 30.21 852 25.16 10.2 50.4 47 -0.5 31.1
14:20 1023 30.21 852 25.16 10.5 50.9 46 -0.5 31.1
14:25 1023 30.21 852 25.16 10.6 51 47 -0.3 31.5
14:30 1023 30.21 852 25.16 10.5 50.9 47 -0.2 31.6
14:35 1023 30.21 852 25.16 10.7 51.2 46 -0.3 31.4
14:40 1023 30.21 852 25.16 10.7 51.2 47 -0.2 31.6
14:45 1023 30.21 852 25.16 10.4 50.7 48 -0.2 31.6
14:50 1023 30.21 852 25.16 10.1 50.2 49 -0.2 31.7
14:55 1023 30.21 852 25.16 10.4 50.7 47 -0.3 31.4
15:00 1023 30.21 852 25.16 10.8 51.5 46 -0.4 31.2
15:05 1023 30.21 852 25.16 10.9 51.6 45 -0.4 31.2
15:10 1023 30.21 853 25.19 11 51.8 46 -0 32
15:15 1023 30.21 853 25.19 11 51.9 46 -0.2 31.6
15:20 1024 30.24 853 25.19 11 51.7 47 0 32
15:25 1024 30.24 853 25.19 10.8 51.5 47 0.1 32.2
15:30 1024 30.24 853 25.19 10.8 51.4 48 0.2 32.4
15:35 1023 30.21 853 25.19 10.9 51.7 47 0.1 32.3
15:40 1023 30.21 853 25.19 11 51.8 47 0.1 32.1
15:45 1023 30.21 853 25.19 11.1 52 46 -0.1 31.8
15:50 1023 30.21 853 25.19 11.3 52.4 44 -0.3 31.4
15:55 1023 30.21 853 25.19 11.4 52.6 44 -0.4 31.3
16:00 1023 30.21 853 25.19 11.7 53 45 0.2 32.3
16:05 1023 30.21 853 25.19 11.1 52.1 46 0.1 32.1
16:10 1023 30.21 853 25.19 10.7 51.2 48 0.1 32.2
16:15 1024 30.24 853 25.19 10.5 50.8 48 -0 31.9
16:20 1024 30.24 853 25.19 10.3 50.5 49 0.1 32.2
16:25 1024 30.24 853 25.19 10.3 50.6 49 0.2 32.3
16:30 1024 30.24 853 25.19 10.5 51 48 0.1 32.2
16:35 1024 30.24 853 25.19 10.3 50.5 49 0 32
16:40 1024 30.24 853 25.19 10.1 50.1 49 -0 31.9
16:45 1024 30.24 853 25.19 10.2 50.3 48 -0.3 31.5
16:50 1024 30.24 853 25.19 10.2 50.4 48 -0.3 31.4
16:55 1024 30.24 853 25.19 10.3 50.6 48 -0.2 31.6
17:00 1024 30.24 853 25.19 10.4 50.7 49 0.3 32.5
17:05 1024 30.24 853 25.19 10.4 50.6 49 0.1 32.1
17:10 1024 30.24 853 25.19 10.4 50.6 48 -0.2 31.6
17:15 1024 30.24 853 25.19 10.5 50.8 48 -0.1 31.8
17:20 1024 30.24 853 25.19 10.5 50.9 49 0.3 32.5
17:25 1024 30.24 853 25.19 10.3 50.5 49 0.2 32.3
17:30 1024 30.24 853 25.19 10.2 50.4 50 0.3 32.6
17:35 1024 30.24 853 25.19 10.3 50.6 48 -0.1 31.9
17:40 1024 30.24 853 25.19 10.6 51 47 -0.3 31.5
17:45 1024 30.24 853 25.19 10.7 51.2 47 -0.2 31.7
17:50 1024 30.24 853 25.19 10.6 51 47 -0.2 31.6
17:55 1024 30.24 853 25.19 10.6 51 46 -0.4 31.3
18:00 1024 30.24 853 25.19 10.6 51 45 -0.7 30.7
18:05 1024 30.24 853 25.19 10.6 51.1 46 -0.6 31
18:10 1024 30.24 853 25.19 10.6 51.1 45 -0.7 30.7
18:15 1024 30.24 853 25.19 10.4 50.7 47 -0.4 31.3
18:20 1024 30.24 853 25.19 10.3 50.5 47 -0.6 31
18:25 1024 30.24 853 25.19 10.4 50.7 47 -0.4 31.3
18:30 1024 30.24 853 25.19 10.5 50.8 47 -0.2 31.6
18:35 1024 30.24 853 25.19 10.4 50.8 48 -0.2 31.7
18:40 1024 30.24 854 25.22 10.4 50.6 49 0.1 32.1
18:45 1024 30.24 854 25.22 10.3 50.5 49 -0 32
18:50 1024 30.24 854 25.22 10.3 50.5 49 0 32.1
18:55 1024 30.24 854 25.22 10.2 50.4 49 0.1 32.1
19:00 1025 30.27 854 25.22 10.1 50.2 51 0.4 32.8
19:05 1025 30.27 854 25.22 9.9 49.8 51 0.4 32.7
19:10 1025 30.27 854 25.22 9.8 49.7 51 0.2 32.4
19:15 1025 30.27 854 25.22 9.8 49.7 51 0.1 32.2
19:20 1025 30.27 854 25.22 9.9 49.8 51 0.3 32.5
19:25 1025 30.27 854 25.22 9.9 49.8 51 0.1 32.3
19:30 1025 30.27 854 25.22 9.9 49.8 51 0.3 32.6
19:35 1025 30.27 854 25.22 9.9 49.8 51 0.2 32.3
19:40 1025 30.27 854 25.22 10 49.9 51 0.3 32.6
19:45 1025 30.27 854 25.22 10 49.9 51 0.3 32.5
19:50 1025 30.27 854 25.22 9.9 49.7 52 0.4 32.7
19:55 1025 30.27 854 25.22 9.7 49.4 52 0.4 32.7
20:00 1025 30.27 854 25.22 9.4 49 53 0.5 32.9
20:05 1025 30.27 854 25.22 9.2 48.6 54 0.4 32.7
20:10 1025 30.27 854 25.22 9.2 48.6 54 0.6 33
20:15 1025 30.27 854 25.22 9.3 48.7 53 0.3 32.5
20:20 1025 30.27 854 25.22 9.4 48.9 53 0.4 32.7
20:25 1025 30.27 854 25.22 9.3 48.8 54 0.4 32.8
20:30 1025 30.27 855 25.25 9.3 48.7 53 0.3 32.5
20:35 1025 30.27 855 25.25 9.2 48.6 54 0.5 32.9
20:40 1025 30.27 855 25.25 9.3 48.7 54 0.6 33
20:45 1025 30.27 855 25.25 9.1 48.4 56 0.8 33.4
20:50 1026 30.3 855 25.25 8.7 47.7 57 0.8 33.5
20:55 1026 30.3 855 25.25 8.3 46.9 60 0.9 33.7
21:00 1026 30.3 855 25.25 8.2 46.7 60 0.8 33.5
21:05 1025 30.27 855 25.25 8.1 46.5 62 1.2 34.1
21:10 1025 30.27 855 25.25 8 46.4 60 0.9 33.5
21:15 1025 30.27 855 25.25 8.1 46.6 61 1 33.8
21:20 1025 30.27 855 25.25 8.1 46.5 60 0.9 33.6
21:25 1026 30.3 855 25.25 8.2 46.8 58 0.4 32.7
21:30 1026 30.3 855 25.25 8.6 47.5 57 0.5 32.9
21:35 1026 30.3 855 25.25 8.6 47.5 58 0.9 33.6
21:40 1026 30.3 855 25.25 8.3 46.9 59 0.7 33.3
21:45 1026 30.3 855 25.25 8.3 46.9 59 0.7 33.2
21:50 1026 30.3 855 25.25 8.4 47.1 58 0.6 33.1
21:55 1026 30.3 855 25.25 8.5 47.2 58 0.7 33.2
22:00 1026 30.3 855 25.25 8.4 47.1 58 0.7 33.3
22:05 1026 30.3 855 25.25 8.4 47 59 0.8 33.4
22:10 1026 30.3 855 25.25 8.2 46.7 61 1 33.9
22:15 1026 30.3 855 25.25 7.9 46.3 61 1 33.8
22:20 1026 30.3 855 25.25 7.8 46 63 1.1 34
22:25 1026 30.3 855 25.25 7.5 45.6 63 0.9 33.6
22:30 1026 30.3 855 25.25 7.6 45.7 62 0.8 33.5
22:35 1026 30.3 855 25.25 7.6 45.7 60 0.4 32.7
22:40 1026 30.3 855 25.25 7.9 46.1 59 0.4 32.7
22:45 1026 30.3 855 25.25 7.8 46 63 1.1 34
22:50 1026 30.3 855 25.25 7.2 45 65 1 33.8
22:55 1026 30.3 855 25.25 6.9 44.4 66 0.9 33.6
23:00 1026 30.3 855 25.25 6.7 44 67 1.1 33.9
23:05 1026 30.3 855 25.25 6.3 43.4 68 0.9 33.6
23:10 1026 30.3 855 25.25 6.1 43 69 0.8 33.4
23:15 1026 30.3 855 25.25 6 42.7 69 0.8 33.4
23:20 1026 30.3 855 25.25 6.1 43 68 0.7 33.3
23:25 1026 30.3 855 25.25 6.1 43.1 67 0.4 32.8
23:30 1026 30.3 855 25.25 6.1 43.1 70 1.1 34
23:35 1026 30.3 855 25.25 5.7 42.2 71 0.8 33.4
23:40 1026 30.3 855 25.25 5.5 42 71 0.7 33.2
23:45 1026 30.3 855 25.25 5.6 42 70 0.6 33
23:50 1026 30.3 855 25.25 5.6 42.2 70 0.5 33
23:55 1026 30.3 855 25.25 5.7 42.3 69 0.6 33.1
24:00 1026 30.3 855 25.25 6 42.7 67 0.4 32.7